sensor_id;sensor_type;location;lat;lon;timestamp;P1;durP1;ratioP1;P2;durP2;ratioP2
78508;SDS011;67802;50.846;7.958;2023-03-03T00:00:55;5.33;;;2.10;;
78508;SDS011;67802;50.846;7.958;2023-03-03T00:03:21;4.22;;;1.85;;
78508;SDS011;67802;50.846;7.958;2023-03-03T00:05:48;4.57;;;2.20;;
78508;SDS011;67802;50.846;7.958;2023-03-03T00:08:14;6.53;;;2.28;;
78508;SDS011;67802;50.846;7.958;2023-03-03T00:10:40;4.60;;;2.00;;
78508;SDS011;67802;50.846;7.958;2023-03-03T00:13:11;4.53;;;2.05;;
78508;SDS011;67802;50.846;7.958;2023-03-03T00:15:40;4.93;;;2.33;;
78508;SDS011;67802;50.846;7.958;2023-03-03T00:18:12;6.88;;;2.50;;
78508;SDS011;67802;50.846;7.958;2023-03-03T00:20:53;5.05;;;2.20;;
78508;SDS011;67802;50.846;7.958;2023-03-03T00:23:33;4.82;;;2.35;;
78508;SDS011;67802;50.846;7.958;2023-03-03T00:26:01;5.65;;;2.30;;
78508;SDS011;67802;50.846;7.958;2023-03-03T00:28:31;6.22;;;2.35;;
78508;SDS011;67802;50.846;7.958;2023-03-03T00:31:11;4.75;;;2.03;;
78508;SDS011;67802;50.846;7.958;2023-03-03T00:33:42;5.07;;;2.15;;
78508;SDS011;67802;50.846;7.958;2023-03-03T00:36:35;5.13;;;2.10;;
78508;SDS011;67802;50.846;7.958;2023-03-03T00:41:51;6.45;;;2.50;;
78508;SDS011;67802;50.846;7.958;2023-03-03T00:46:49;5.00;;;2.38;;
78508;SDS011;67802;50.846;7.958;2023-03-03T00:49:19;5.72;;;2.60;;
78508;SDS011;67802;50.846;7.958;2023-03-03T00:51:48;4.47;;;2.20;;
78508;SDS011;67802;50.846;7.958;2023-03-03T00:54:14;5.57;;;2.55;;
78508;SDS011;67802;50.846;7.958;2023-03-03T00:56:39;6.00;;;2.47;;
78508;SDS011;67802;50.846;7.958;2023-03-03T00:59:04;5.60;;;2.27;;
78508;SDS011;67802;50.846;7.958;2023-03-03T01:01:31;5.88;;;2.80;;
78508;SDS011;67802;50.846;7.958;2023-03-03T01:03:56;5.78;;;2.40;;
78508;SDS011;67802;50.846;7.958;2023-03-03T01:06:22;5.32;;;2.53;;
78508;SDS011;67802;50.846;7.958;2023-03-03T01:08:47;6.10;;;2.50;;
78508;SDS011;67802;50.846;7.958;2023-03-03T01:11:19;5.35;;;2.30;;
78508;SDS011;67802;50.846;7.958;2023-03-03T01:13:47;6.07;;;2.63;;
78508;SDS011;67802;50.846;7.958;2023-03-03T01:16:15;6.22;;;2.75;;
78508;SDS011;67802;50.846;7.958;2023-03-03T01:18:40;5.80;;;2.55;;
78508;SDS011;67802;50.846;7.958;2023-03-03T01:21:06;5.97;;;2.58;;
78508;SDS011;67802;50.846;7.958;2023-03-03T01:23:32;5.47;;;2.42;;
78508;SDS011;67802;50.846;7.958;2023-03-03T01:25:58;6.13;;;2.83;;
78508;SDS011;67802;50.846;7.958;2023-03-03T01:28:24;5.15;;;2.40;;
78508;SDS011;67802;50.846;7.958;2023-03-03T01:30:49;5.88;;;2.42;;
78508;SDS011;67802;50.846;7.958;2023-03-03T01:33:15;6.38;;;2.72;;
78508;SDS011;67802;50.846;7.958;2023-03-03T01:35:46;4.97;;;2.40;;
78508;SDS011;67802;50.846;7.958;2023-03-03T01:38:12;4.70;;;2.45;;
78508;SDS011;67802;50.846;7.958;2023-03-03T01:40:39;4.93;;;2.40;;
78508;SDS011;67802;50.846;7.958;2023-03-03T01:43:05;5.15;;;2.58;;
78508;SDS011;67802;50.846;7.958;2023-03-03T01:45:31;5.68;;;2.67;;
78508;SDS011;67802;50.846;7.958;2023-03-03T01:48:20;5.50;;;2.42;;
78508;SDS011;67802;50.846;7.958;2023-03-03T01:51:24;5.90;;;2.55;;
78508;SDS011;67802;50.846;7.958;2023-03-03T01:53:50;5.18;;;2.60;;
78508;SDS011;67802;50.846;7.958;2023-03-03T01:56:18;5.22;;;2.60;;
78508;SDS011;67802;50.846;7.958;2023-03-03T01:58:45;4.97;;;2.55;;
78508;SDS011;67802;50.846;7.958;2023-03-03T02:01:14;6.32;;;2.85;;
78508;SDS011;67802;50.846;7.958;2023-03-03T02:03:51;5.68;;;2.65;;
78508;SDS011;67802;50.846;7.958;2023-03-03T02:06:18;5.72;;;2.40;;
78508;SDS011;67802;50.846;7.958;2023-03-03T02:08:58;5.70;;;2.65;;
78508;SDS011;67802;50.846;7.958;2023-03-03T02:11:29;5.45;;;2.50;;
78508;SDS011;67802;50.846;7.958;2023-03-03T02:13:56;6.43;;;2.72;;
78508;SDS011;67802;50.846;7.958;2023-03-03T02:16:22;5.95;;;2.63;;
78508;SDS011;67802;50.846;7.958;2023-03-03T02:18:47;5.22;;;2.30;;
78508;SDS011;67802;50.846;7.958;2023-03-03T02:21:16;5.75;;;2.60;;
78508;SDS011;67802;50.846;7.958;2023-03-03T02:26:30;5.25;;;2.60;;
78508;SDS011;67802;50.846;7.958;2023-03-03T02:28:58;4.88;;;2.35;;
78508;SDS011;67802;50.846;7.958;2023-03-03T02:31:25;5.18;;;2.30;;
78508;SDS011;67802;50.846;7.958;2023-03-03T02:33:52;6.18;;;2.70;;
78508;SDS011;67802;50.846;7.958;2023-03-03T02:36:20;6.18;;;2.72;;
78508;SDS011;67802;50.846;7.958;2023-03-03T02:41:49;5.13;;;2.38;;
78508;SDS011;67802;50.846;7.958;2023-03-03T02:44:17;5.72;;;2.50;;
78508;SDS011;67802;50.846;7.958;2023-03-03T02:46:45;5.72;;;2.58;;
78508;SDS011;67802;50.846;7.958;2023-03-03T02:49:12;5.28;;;2.22;;
78508;SDS011;67802;50.846;7.958;2023-03-03T02:51:40;5.30;;;2.72;;
78508;SDS011;67802;50.846;7.958;2023-03-03T02:54:07;6.60;;;2.63;;
78508;SDS011;67802;50.846;7.958;2023-03-03T02:56:33;6.00;;;2.75;;
78508;SDS011;67802;50.846;7.958;2023-03-03T02:58:59;5.60;;;2.47;;
78508;SDS011;67802;50.846;7.958;2023-03-03T03:01:24;5.22;;;2.50;;
78508;SDS011;67802;50.846;7.958;2023-03-03T03:03:49;5.30;;;2.65;;
78508;SDS011;67802;50.846;7.958;2023-03-03T03:06:15;6.13;;;2.63;;
78508;SDS011;67802;50.846;7.958;2023-03-03T03:08:40;6.13;;;2.80;;
78508;SDS011;67802;50.846;7.958;2023-03-03T03:11:05;6.22;;;2.65;;
78508;SDS011;67802;50.846;7.958;2023-03-03T03:13:31;5.88;;;2.65;;
78508;SDS011;67802;50.846;7.958;2023-03-03T03:15:58;5.85;;;2.80;;
78508;SDS011;67802;50.846;7.958;2023-03-03T03:18:23;5.95;;;2.70;;
78508;SDS011;67802;50.846;7.958;2023-03-03T03:20:49;5.68;;;2.60;;
78508;SDS011;67802;50.846;7.958;2023-03-03T03:23:15;5.60;;;2.70;;
78508;SDS011;67802;50.846;7.958;2023-03-03T03:25:40;6.20;;;2.72;;
78508;SDS011;67802;50.846;7.958;2023-03-03T03:28:12;5.80;;;2.67;;
78508;SDS011;67802;50.846;7.958;2023-03-03T03:30:38;5.93;;;2.80;;
78508;SDS011;67802;50.846;7.958;2023-03-03T03:33:04;5.68;;;2.78;;
78508;SDS011;67802;50.846;7.958;2023-03-03T03:35:29;5.72;;;2.95;;
78508;SDS011;67802;50.846;7.958;2023-03-03T03:37:56;6.28;;;2.65;;
78508;SDS011;67802;50.846;7.958;2023-03-03T03:40:21;6.20;;;2.88;;
78508;SDS011;67802;50.846;7.958;2023-03-03T03:42:47;5.65;;;2.60;;
78508;SDS011;67802;50.846;7.958;2023-03-03T03:45:12;7.13;;;3.03;;
78508;SDS011;67802;50.846;7.958;2023-03-03T03:47:40;6.50;;;3.13;;
78508;SDS011;67802;50.846;7.958;2023-03-03T03:50:07;5.97;;;2.53;;
78508;SDS011;67802;50.846;7.958;2023-03-03T03:52:34;5.07;;;2.40;;
78508;SDS011;67802;50.846;7.958;2023-03-03T03:54:59;5.85;;;2.97;;
78508;SDS011;67802;50.846;7.958;2023-03-03T03:57:24;6.68;;;2.83;;
78508;SDS011;67802;50.846;7.958;2023-03-03T03:59:50;6.07;;;3.20;;
78508;SDS011;67802;50.846;7.958;2023-03-03T04:02:16;5.72;;;2.83;;
78508;SDS011;67802;50.846;7.958;2023-03-03T04:04:41;5.18;;;2.53;;
78508;SDS011;67802;50.846;7.958;2023-03-03T04:07:06;5.78;;;2.75;;
78508;SDS011;67802;50.846;7.958;2023-03-03T04:09:32;5.88;;;2.60;;
78508;SDS011;67802;50.846;7.958;2023-03-03T04:11:57;5.85;;;3.10;;
78508;SDS011;67802;50.846;7.958;2023-03-03T04:14:22;5.45;;;2.78;;
78508;SDS011;67802;50.846;7.958;2023-03-03T04:16:48;6.50;;;2.90;;
78508;SDS011;67802;50.846;7.958;2023-03-03T04:19:13;7.47;;;2.95;;
78508;SDS011;67802;50.846;7.958;2023-03-03T04:21:38;5.25;;;2.63;;
78508;SDS011;67802;50.846;7.958;2023-03-03T04:24:04;5.85;;;2.60;;
78508;SDS011;67802;50.846;7.958;2023-03-03T04:26:29;6.28;;;3.30;;
78508;SDS011;67802;50.846;7.958;2023-03-03T04:28:56;5.22;;;2.53;;
78508;SDS011;67802;50.846;7.958;2023-03-03T04:31:22;6.15;;;2.83;;
78508;SDS011;67802;50.846;7.958;2023-03-03T04:33:49;6.18;;;3.08;;
78508;SDS011;67802;50.846;7.958;2023-03-03T04:36:15;7.38;;;3.10;;
78508;SDS011;67802;50.846;7.958;2023-03-03T04:38:40;5.18;;;2.58;;
78508;SDS011;67802;50.846;7.958;2023-03-03T04:41:05;5.80;;;2.80;;
78508;SDS011;67802;50.846;7.958;2023-03-03T04:43:31;6.72;;;2.90;;
78508;SDS011;67802;50.846;7.958;2023-03-03T04:45:56;5.93;;;2.88;;
78508;SDS011;67802;50.846;7.958;2023-03-03T04:48:21;5.75;;;2.80;;
78508;SDS011;67802;50.846;7.958;2023-03-03T04:50:47;5.60;;;2.63;;
78508;SDS011;67802;50.846;7.958;2023-03-03T04:53:12;5.57;;;2.58;;
78508;SDS011;67802;50.846;7.958;2023-03-03T04:55:37;5.72;;;2.78;;
78508;SDS011;67802;50.846;7.958;2023-03-03T04:58:03;6.35;;;3.05;;
78508;SDS011;67802;50.846;7.958;2023-03-03T05:00:29;5.97;;;2.90;;
78508;SDS011;67802;50.846;7.958;2023-03-03T05:02:54;5.55;;;2.60;;
78508;SDS011;67802;50.846;7.958;2023-03-03T05:05:20;6.60;;;3.10;;
78508;SDS011;67802;50.846;7.958;2023-03-03T05:07:45;5.57;;;2.60;;
78508;SDS011;67802;50.846;7.958;2023-03-03T05:10:10;6.75;;;2.90;;
78508;SDS011;67802;50.846;7.958;2023-03-03T05:12:36;5.57;;;2.50;;
78508;SDS011;67802;50.846;7.958;2023-03-03T05:15:01;6.68;;;2.95;;
78508;SDS011;67802;50.846;7.958;2023-03-03T05:17:27;5.97;;;3.10;;
78508;SDS011;67802;50.846;7.958;2023-03-03T05:19:52;7.30;;;3.30;;
78508;SDS011;67802;50.846;7.958;2023-03-03T05:22:18;5.72;;;2.90;;
78508;SDS011;67802;50.846;7.958;2023-03-03T05:24:43;5.65;;;2.80;;
78508;SDS011;67802;50.846;7.958;2023-03-03T05:27:12;5.78;;;3.10;;
78508;SDS011;67802;50.846;7.958;2023-03-03T05:29:38;5.20;;;2.67;;
78508;SDS011;67802;50.846;7.958;2023-03-03T05:32:03;5.35;;;2.70;;
78508;SDS011;67802;50.846;7.958;2023-03-03T05:34:29;7.05;;;2.88;;
78508;SDS011;67802;50.846;7.958;2023-03-03T05:36:54;5.63;;;2.53;;
78508;SDS011;67802;50.846;7.958;2023-03-03T05:39:20;5.35;;;2.90;;
78508;SDS011;67802;50.846;7.958;2023-03-03T05:41:45;6.35;;;2.80;;
78508;SDS011;67802;50.846;7.958;2023-03-03T05:44:10;5.95;;;3.00;;
78508;SDS011;67802;50.846;7.958;2023-03-03T05:46:36;6.35;;;2.88;;
78508;SDS011;67802;50.846;7.958;2023-03-03T05:49:01;5.95;;;2.92;;
78508;SDS011;67802;50.846;7.958;2023-03-03T05:51:26;6.40;;;3.38;;
78508;SDS011;67802;50.846;7.958;2023-03-03T05:53:52;5.95;;;3.10;;
78508;SDS011;67802;50.846;7.958;2023-03-03T05:56:17;5.95;;;2.90;;
78508;SDS011;67802;50.846;7.958;2023-03-03T05:58:42;6.38;;;3.28;;
78508;SDS011;67802;50.846;7.958;2023-03-03T06:01:08;6.20;;;3.00;;
78508;SDS011;67802;50.846;7.958;2023-03-03T06:03:33;5.43;;;3.00;;
78508;SDS011;67802;50.846;7.958;2023-03-03T06:05:58;6.07;;;2.90;;
78508;SDS011;67802;50.846;7.958;2023-03-03T06:08:24;6.32;;;2.85;;
78508;SDS011;67802;50.846;7.958;2023-03-03T06:10:49;5.82;;;2.95;;
78508;SDS011;67802;50.846;7.958;2023-03-03T06:13:15;6.88;;;3.38;;
78508;SDS011;67802;50.846;7.958;2023-03-03T06:15:40;6.75;;;3.50;;
78508;SDS011;67802;50.846;7.958;2023-03-03T06:18:06;6.45;;;3.00;;
78508;SDS011;67802;50.846;7.958;2023-03-03T06:20:31;5.35;;;2.63;;
78508;SDS011;67802;50.846;7.958;2023-03-03T06:22:57;6.82;;;3.00;;
78508;SDS011;67802;50.846;7.958;2023-03-03T06:25:23;6.72;;;3.00;;
78508;SDS011;67802;50.846;7.958;2023-03-03T06:27:48;6.53;;;3.30;;
78508;SDS011;67802;50.846;7.958;2023-03-03T06:30:13;5.82;;;3.10;;
78508;SDS011;67802;50.846;7.958;2023-03-03T06:32:39;5.80;;;2.90;;
78508;SDS011;67802;50.846;7.958;2023-03-03T06:35:04;6.60;;;3.20;;
78508;SDS011;67802;50.846;7.958;2023-03-03T06:37:30;5.75;;;3.08;;
78508;SDS011;67802;50.846;7.958;2023-03-03T06:39:56;6.30;;;2.90;;
78508;SDS011;67802;50.846;7.958;2023-03-03T06:42:21;6.43;;;2.97;;
78508;SDS011;67802;50.846;7.958;2023-03-03T06:44:48;6.20;;;3.25;;
78508;SDS011;67802;50.846;7.958;2023-03-03T06:47:14;6.82;;;3.22;;
78508;SDS011;67802;50.846;7.958;2023-03-03T06:49:39;6.15;;;2.88;;
78508;SDS011;67802;50.846;7.958;2023-03-03T06:52:10;6.95;;;3.42;;
78508;SDS011;67802;50.846;7.958;2023-03-03T06:54:38;5.90;;;3.15;;
78508;SDS011;67802;50.846;7.958;2023-03-03T06:57:26;6.40;;;3.35;;
78508;SDS011;67802;50.846;7.958;2023-03-03T06:59:55;6.68;;;3.30;;
78508;SDS011;67802;50.846;7.958;2023-03-03T07:02:24;6.35;;;3.25;;
78508;SDS011;67802;50.846;7.958;2023-03-03T07:04:49;6.05;;;3.15;;
78508;SDS011;67802;50.846;7.958;2023-03-03T07:09:45;7.18;;;3.00;;
78508;SDS011;67802;50.846;7.958;2023-03-03T07:12:28;6.20;;;3.20;;
78508;SDS011;67802;50.846;7.958;2023-03-03T07:15:11;5.95;;;3.10;;
78508;SDS011;67802;50.846;7.958;2023-03-03T07:17:41;5.93;;;2.83;;
78508;SDS011;67802;50.846;7.958;2023-03-03T07:20:23;5.93;;;3.20;;
78508;SDS011;67802;50.846;7.958;2023-03-03T07:22:52;6.03;;;3.25;;
78508;SDS011;67802;50.846;7.958;2023-03-03T07:25:35;6.15;;;2.95;;
78508;SDS011;67802;50.846;7.958;2023-03-03T07:28:12;6.05;;;3.00;;
78508;SDS011;67802;50.846;7.958;2023-03-03T07:30:51;6.20;;;2.95;;
78508;SDS011;67802;50.846;7.958;2023-03-03T07:36:18;6.30;;;3.05;;
78508;SDS011;67802;50.846;7.958;2023-03-03T07:38:52;5.30;;;2.88;;
78508;SDS011;67802;50.846;7.958;2023-03-03T07:41:18;5.18;;;2.90;;
78508;SDS011;67802;50.846;7.958;2023-03-03T07:43:55;5.63;;;2.63;;
78508;SDS011;67802;50.846;7.958;2023-03-03T07:46:44;10.43;;;3.08;;
78508;SDS011;67802;50.846;7.958;2023-03-03T07:51:55;11.32;;;2.70;;
78508;SDS011;67802;50.846;7.958;2023-03-03T07:54:35;10.40;;;3.25;;
78508;SDS011;67802;50.846;7.958;2023-03-03T07:57:11;5.72;;;2.90;;
78508;SDS011;67802;50.846;7.958;2023-03-03T07:59:51;8.50;;;2.92;;
78508;SDS011;67802;50.846;7.958;2023-03-03T08:02:57;7.30;;;2.88;;
78508;SDS011;67802;50.846;7.958;2023-03-03T08:07:54;6.50;;;2.70;;
78508;SDS011;67802;50.846;7.958;2023-03-03T08:10:39;7.97;;;3.03;;
78508;SDS011;67802;50.846;7.958;2023-03-03T08:13:12;6.32;;;3.13;;
78508;SDS011;67802;50.846;7.958;2023-03-03T08:15:42;6.35;;;2.83;;
78508;SDS011;67802;50.846;7.958;2023-03-03T08:20:48;6.60;;;3.20;;
78508;SDS011;67802;50.846;7.958;2023-03-03T08:23:15;10.13;;;2.85;;
78508;SDS011;67802;50.846;7.958;2023-03-03T08:25:42;6.03;;;3.13;;
78508;SDS011;67802;50.846;7.958;2023-03-03T08:28:08;6.18;;;3.00;;
78508;SDS011;67802;50.846;7.958;2023-03-03T08:30:34;5.32;;;2.60;;
78508;SDS011;67802;50.846;7.958;2023-03-03T08:33:00;7.35;;;3.08;;
78508;SDS011;67802;50.846;7.958;2023-03-03T08:35:26;5.45;;;2.65;;
78508;SDS011;67802;50.846;7.958;2023-03-03T08:37:52;8.18;;;3.58;;
78508;SDS011;67802;50.846;7.958;2023-03-03T08:40:18;6.32;;;2.90;;
78508;SDS011;67802;50.846;7.958;2023-03-03T08:42:43;7.10;;;2.97;;
78508;SDS011;67802;50.846;7.958;2023-03-03T08:45:08;5.82;;;2.90;;
78508;SDS011;67802;50.846;7.958;2023-03-03T08:47:34;5.00;;;2.80;;
78508;SDS011;67802;50.846;7.958;2023-03-03T08:49:59;5.57;;;2.72;;
78508;SDS011;67802;50.846;7.958;2023-03-03T08:52:24;6.22;;;2.72;;
78508;SDS011;67802;50.846;7.958;2023-03-03T08:54:50;5.57;;;2.47;;
78508;SDS011;67802;50.846;7.958;2023-03-03T08:57:16;5.22;;;2.80;;
78508;SDS011;67802;50.846;7.958;2023-03-03T08:59:41;4.75;;;2.50;;
78508;SDS011;67802;50.846;7.958;2023-03-03T09:02:07;4.72;;;2.63;;
78508;SDS011;67802;50.846;7.958;2023-03-03T09:04:32;5.63;;;2.70;;
78508;SDS011;67802;50.846;7.958;2023-03-03T09:06:58;5.75;;;3.00;;
78508;SDS011;67802;50.846;7.958;2023-03-03T09:09:24;5.22;;;2.75;;
78508;SDS011;67802;50.846;7.958;2023-03-03T09:11:49;6.13;;;2.75;;
78508;SDS011;67802;50.846;7.958;2023-03-03T09:14:17;6.15;;;3.03;;
78508;SDS011;67802;50.846;7.958;2023-03-03T09:16:49;5.07;;;2.83;;
78508;SDS011;67802;50.846;7.958;2023-03-03T09:19:23;5.25;;;2.70;;
78508;SDS011;67802;50.846;7.958;2023-03-03T09:21:50;4.80;;;2.30;;
78508;SDS011;67802;50.846;7.958;2023-03-03T09:24:28;5.38;;;2.88;;
78508;SDS011;67802;50.846;7.958;2023-03-03T09:26:56;4.97;;;2.40;;
78508;SDS011;67802;50.846;7.958;2023-03-03T09:29:28;4.82;;;2.83;;
78508;SDS011;67802;50.846;7.958;2023-03-03T09:37:00;4.88;;;2.42;;
78508;SDS011;67802;50.846;7.958;2023-03-03T09:39:27;5.63;;;2.60;;
78508;SDS011;67802;50.846;7.958;2023-03-03T09:53:39;4.93;;;2.53;;
78508;SDS011;67802;50.846;7.958;2023-03-03T10:07:05;5.47;;;2.53;;
78508;SDS011;67802;50.846;7.958;2023-03-03T10:10:14;4.60;;;2.20;;
78508;SDS011;67802;50.846;7.958;2023-03-03T10:18:22;4.75;;;2.35;;
78508;SDS011;67802;50.846;7.958;2023-03-03T10:53:58;4.88;;;2.30;;
78508;SDS011;67802;50.846;7.958;2023-03-03T11:05:39;4.22;;;2.00;;
78508;SDS011;67802;50.846;7.958;2023-03-03T11:08:16;4.25;;;2.25;;
78508;SDS011;67802;50.846;7.958;2023-03-03T11:16:43;5.13;;;2.15;;
78508;SDS011;67802;50.846;7.958;2023-03-03T11:27:05;3.90;;;1.90;;
78508;SDS011;67802;50.846;7.958;2023-03-03T11:29:55;4.45;;;2.15;;
78508;SDS011;67802;50.846;7.958;2023-03-03T11:32:42;4.30;;;2.13;;
78508;SDS011;67802;50.846;7.958;2023-03-03T11:38:04;4.88;;;2.17;;
78508;SDS011;67802;50.846;7.958;2023-03-03T11:40:41;4.10;;;1.90;;
78508;SDS011;67802;50.846;7.958;2023-03-03T11:43:16;4.82;;;2.20;;
78508;SDS011;67802;50.846;7.958;2023-03-03T11:45:47;4.10;;;1.92;;
78508;SDS011;67802;50.846;7.958;2023-03-03T11:48:21;3.95;;;1.90;;
78508;SDS011;67802;50.846;7.958;2023-03-03T11:51:04;3.65;;;1.80;;
78508;SDS011;67802;50.846;7.958;2023-03-03T11:56:22;4.32;;;1.92;;
78508;SDS011;67802;50.846;7.958;2023-03-03T11:58:53;4.18;;;1.98;;
78508;SDS011;67802;50.846;7.958;2023-03-03T12:01:29;3.83;;;1.60;;
78508;SDS011;67802;50.846;7.958;2023-03-03T12:09:43;4.30;;;2.00;;
78508;SDS011;67802;50.846;7.958;2023-03-03T12:12:32;3.97;;;1.92;;
78508;SDS011;67802;50.846;7.958;2023-03-03T12:15:14;4.00;;;1.85;;
78508;SDS011;67802;50.846;7.958;2023-03-03T12:20:39;3.78;;;1.85;;
78508;SDS011;67802;50.846;7.958;2023-03-03T12:26:11;4.72;;;1.73;;
78508;SDS011;67802;50.846;7.958;2023-03-03T12:31:25;4.22;;;1.90;;
78508;SDS011;67802;50.846;7.958;2023-03-03T12:33:54;4.47;;;1.90;;
78508;SDS011;67802;50.846;7.958;2023-03-03T12:36:35;3.30;;;1.60;;
78508;SDS011;67802;50.846;7.958;2023-03-03T12:47:44;3.58;;;1.50;;
78508;SDS011;67802;50.846;7.958;2023-03-03T12:58:22;3.08;;;1.48;;
78508;SDS011;67802;50.846;7.958;2023-03-03T13:20:19;3.67;;;1.55;;
78508;SDS011;67802;50.846;7.958;2023-03-03T13:22:56;3.22;;;1.55;;
78508;SDS011;67802;50.846;7.958;2023-03-03T13:28:16;3.38;;;1.40;;
78508;SDS011;67802;50.846;7.958;2023-03-03T13:30:54;3.70;;;1.60;;
78508;SDS011;67802;50.846;7.958;2023-03-03T13:33:27;3.50;;;1.60;;
78508;SDS011;67802;50.846;7.958;2023-03-03T13:35:57;3.92;;;1.60;;
78508;SDS011;67802;50.846;7.958;2023-03-03T13:38:24;3.53;;;1.50;;
78508;SDS011;67802;50.846;7.958;2023-03-03T13:46:09;3.55;;;1.50;;
78508;SDS011;67802;50.846;7.958;2023-03-03T13:48:50;3.92;;;1.80;;
78508;SDS011;67802;50.846;7.958;2023-03-03T13:59:44;5.00;;;1.70;;
78508;SDS011;67802;50.846;7.958;2023-03-03T14:05:15;3.97;;;1.63;;
78508;SDS011;67802;50.846;7.958;2023-03-03T14:07:45;3.35;;;1.52;;
78508;SDS011;67802;50.846;7.958;2023-03-03T14:10:20;3.25;;;1.40;;
78508;SDS011;67802;50.846;7.958;2023-03-03T14:18:28;5.00;;;1.77;;
78508;SDS011;67802;50.846;7.958;2023-03-03T14:21:13;3.92;;;1.63;;
78508;SDS011;67802;50.846;7.958;2023-03-03T14:26:11;5.32;;;1.63;;
78508;SDS011;67802;50.846;7.958;2023-03-03T14:28:38;3.70;;;1.50;;
78508;SDS011;67802;50.846;7.958;2023-03-03T14:33:56;4.13;;;1.50;;
78508;SDS011;67802;50.846;7.958;2023-03-03T14:36:44;4.68;;;1.48;;
78508;SDS011;67802;50.846;7.958;2023-03-03T14:39:31;3.22;;;1.33;;
78508;SDS011;67802;50.846;7.958;2023-03-03T14:42:09;3.40;;;1.42;;
78508;SDS011;67802;50.846;7.958;2023-03-03T14:44:53;4.30;;;1.40;;
78508;SDS011;67802;50.846;7.958;2023-03-03T14:47:21;3.70;;;1.50;;
78508;SDS011;67802;50.846;7.958;2023-03-03T14:49:48;3.28;;;1.40;;
78508;SDS011;67802;50.846;7.958;2023-03-03T14:54:47;4.30;;;1.30;;
78508;SDS011;67802;50.846;7.958;2023-03-03T14:57:15;3.80;;;1.40;;
78508;SDS011;67802;50.846;7.958;2023-03-03T14:59:54;4.18;;;1.52;;
78508;SDS011;67802;50.846;7.958;2023-03-03T15:07:56;3.05;;;1.30;;
78508;SDS011;67802;50.846;7.958;2023-03-03T15:10:32;2.78;;;1.30;;
78508;SDS011;67802;50.846;7.958;2023-03-03T15:18:23;2.67;;;1.10;;
78508;SDS011;67802;50.846;7.958;2023-03-03T15:31:35;9.75;;;1.55;;
78508;SDS011;67802;50.846;7.958;2023-03-03T15:36:50;3.08;;;1.23;;
78508;SDS011;67802;50.846;7.958;2023-03-03T15:39:27;3.05;;;1.30;;
78508;SDS011;67802;50.846;7.958;2023-03-03T15:42:10;2.97;;;1.27;;
78508;SDS011;67802;50.846;7.958;2023-03-03T15:44:50;2.88;;;1.20;;
78508;SDS011;67802;50.846;7.958;2023-03-03T16:01:24;2.97;;;1.30;;
78508;SDS011;67802;50.846;7.958;2023-03-03T16:14:53;3.00;;;1.30;;
78508;SDS011;67802;50.846;7.958;2023-03-03T16:20:18;3.17;;;1.30;;
78508;SDS011;67802;50.846;7.958;2023-03-03T16:26:14;3.08;;;1.30;;
78508;SDS011;67802;50.846;7.958;2023-03-03T16:31:34;3.53;;;1.30;;
78508;SDS011;67802;50.846;7.958;2023-03-03T16:34:06;2.97;;;1.33;;
78508;SDS011;67802;50.846;7.958;2023-03-03T16:42:32;3.70;;;1.58;;
78508;SDS011;67802;50.846;7.958;2023-03-03T16:50:22;3.40;;;1.27;;
78508;SDS011;67802;50.846;7.958;2023-03-03T16:58:28;3.13;;;1.30;;
78508;SDS011;67802;50.846;7.958;2023-03-03T17:01:20;3.35;;;1.35;;
78508;SDS011;67802;50.846;7.958;2023-03-03T17:04:10;3.45;;;1.40;;
78508;SDS011;67802;50.846;7.958;2023-03-03T17:12:18;2.80;;;1.17;;
78508;SDS011;67802;50.846;7.958;2023-03-03T17:15:09;3.53;;;1.48;;
78508;SDS011;67802;50.846;7.958;2023-03-03T17:46:16;3.72;;;1.55;;
78508;SDS011;67802;50.846;7.958;2023-03-03T17:51:37;3.33;;;1.60;;
78508;SDS011;67802;50.846;7.958;2023-03-03T17:57:23;3.00;;;1.30;;
78508;SDS011;67802;50.846;7.958;2023-03-03T18:13:14;3.58;;;1.40;;
78508;SDS011;67802;50.846;7.958;2023-03-03T18:21:35;4.22;;;1.70;;
78508;SDS011;67802;50.846;7.958;2023-03-03T18:37:56;4.43;;;1.70;;
78508;SDS011;67802;50.846;7.958;2023-03-03T18:46:03;3.38;;;1.48;;
78508;SDS011;67802;50.846;7.958;2023-03-03T18:48:48;4.78;;;1.60;;
78508;SDS011;67802;50.846;7.958;2023-03-03T18:56:44;4.28;;;1.70;;
78508;SDS011;67802;50.846;7.958;2023-03-03T18:59:10;3.78;;;1.70;;
78508;SDS011;67802;50.846;7.958;2023-03-03T19:04:54;4.00;;;1.60;;
78508;SDS011;67802;50.846;7.958;2023-03-03T19:07:31;3.17;;;1.50;;
78508;SDS011;67802;50.846;7.958;2023-03-03T19:12:53;4.22;;;1.70;;
78508;SDS011;67802;50.846;7.958;2023-03-03T19:18:00;3.40;;;1.60;;
78508;SDS011;67802;50.846;7.958;2023-03-03T19:20:36;3.97;;;1.80;;
78508;SDS011;67802;50.846;7.958;2023-03-03T19:23:46;4.38;;;1.83;;
78508;SDS011;67802;50.846;7.958;2023-03-03T19:28:56;4.20;;;1.63;;
78508;SDS011;67802;50.846;7.958;2023-03-03T19:45:17;4.72;;;2.03;;
78508;SDS011;67802;50.846;7.958;2023-03-03T19:47:45;5.60;;;2.13;;
78508;SDS011;67802;50.846;7.958;2023-03-03T19:50:38;6.13;;;2.42;;
78508;SDS011;67802;50.846;7.958;2023-03-03T20:03:47;4.78;;;1.90;;
78508;SDS011;67802;50.846;7.958;2023-03-03T20:12:10;4.65;;;2.05;;
78508;SDS011;67802;50.846;7.958;2023-03-03T20:14:48;4.47;;;1.83;;
78508;SDS011;67802;50.846;7.958;2023-03-03T20:26:07;5.07;;;2.42;;
78508;SDS011;67802;50.846;7.958;2023-03-03T20:34:36;4.93;;;2.20;;
78508;SDS011;67802;50.846;7.958;2023-03-03T20:48:15;5.30;;;1.90;;
78508;SDS011;67802;50.846;7.958;2023-03-03T20:53:48;4.60;;;1.80;;
78508;SDS011;67802;50.846;7.958;2023-03-03T20:56:27;5.10;;;1.77;;
78508;SDS011;67802;50.846;7.958;2023-03-03T20:59:16;5.25;;;2.13;;
78508;SDS011;67802;50.846;7.958;2023-03-03T21:01:58;5.60;;;2.30;;
78508;SDS011;67802;50.846;7.958;2023-03-03T21:04:30;5.57;;;2.33;;
78508;SDS011;67802;50.846;7.958;2023-03-03T21:06:57;4.97;;;2.15;;
78508;SDS011;67802;50.846;7.958;2023-03-03T21:11:52;5.68;;;2.20;;
78508;SDS011;67802;50.846;7.958;2023-03-03T21:14:21;6.40;;;2.35;;
78508;SDS011;67802;50.846;7.958;2023-03-03T21:16:52;4.50;;;2.10;;
78508;SDS011;67802;50.846;7.958;2023-03-03T21:19:33;5.70;;;2.03;;
78508;SDS011;67802;50.846;7.958;2023-03-03T21:22:00;6.13;;;2.10;;
78508;SDS011;67802;50.846;7.958;2023-03-03T21:27:34;5.93;;;2.22;;
78508;SDS011;67802;50.846;7.958;2023-03-03T21:32:34;9.10;;;2.13;;
78508;SDS011;67802;50.846;7.958;2023-03-03T21:35:08;5.13;;;2.20;;
78508;SDS011;67802;50.846;7.958;2023-03-03T21:37:46;5.38;;;2.00;;
78508;SDS011;67802;50.846;7.958;2023-03-03T21:42:58;3.85;;;1.92;;
78508;SDS011;67802;50.846;7.958;2023-03-03T21:45:24;5.60;;;2.20;;
78508;SDS011;67802;50.846;7.958;2023-03-03T21:47:50;4.88;;;2.15;;
78508;SDS011;67802;50.846;7.958;2023-03-03T21:50:17;4.60;;;2.10;;
78508;SDS011;67802;50.846;7.958;2023-03-03T21:52:46;4.38;;;2.08;;
78508;SDS011;67802;50.846;7.958;2023-03-03T21:55:12;6.35;;;2.40;;
78508;SDS011;67802;50.846;7.958;2023-03-03T21:57:38;5.93;;;2.50;;
78508;SDS011;67802;50.846;7.958;2023-03-03T22:00:04;5.60;;;2.42;;
78508;SDS011;67802;50.846;7.958;2023-03-03T22:02:30;5.53;;;2.33;;
78508;SDS011;67802;50.846;7.958;2023-03-03T22:04:56;4.68;;;2.20;;
78508;SDS011;67802;50.846;7.958;2023-03-03T22:07:21;5.20;;;2.30;;
78508;SDS011;67802;50.846;7.958;2023-03-03T22:09:46;5.53;;;2.45;;
78508;SDS011;67802;50.846;7.958;2023-03-03T22:12:12;5.13;;;2.30;;
78508;SDS011;67802;50.846;7.958;2023-03-03T22:14:37;4.80;;;2.25;;
78508;SDS011;67802;50.846;7.958;2023-03-03T22:17:02;5.67;;;2.40;;
78508;SDS011;67802;50.846;7.958;2023-03-03T22:19:27;4.80;;;1.90;;
78508;SDS011;67802;50.846;7.958;2023-03-03T22:21:53;5.43;;;2.42;;
78508;SDS011;67802;50.846;7.958;2023-03-03T22:24:18;5.33;;;2.73;;
78508;SDS011;67802;50.846;7.958;2023-03-03T22:26:43;4.82;;;2.10;;
78508;SDS011;67802;50.846;7.958;2023-03-03T22:29:09;6.05;;;2.50;;